Garrison, Maryland
Current Conditions -  °F | °C
As of 6:54 AM on Sunday 21 Dec 2014 (Local Time) from KBWI Reporting Station
Overcast Overcast  
Wind Chill: 32°   Ceiling: 7000
Heat Index: 32°   Visibility: 10mi
Dew Point: 23°   Wind: 0mph
Humidity: 69%   Direction: NA
Pressure: 30.33"   Gusts: NA
Location:  39.41°N, 76.76°W
Report Text: KBWI 211154Z 00000KT 10SM FEW044 OVC070 00/M05 A3033 RMK AO2 SLP272 T00001050 10006 21011 53010
Loading
Personal Weather Stations






























Interactive Weather Map New forecast layout! Learn more

10-Day Weather Forecast

Advertisements
Track Severe Weather on mobile